sensor_id;sensor_type;location;lat;lon;timestamp;P1;durP1;ratioP1;P2;durP2;ratioP2
9218;SDS011;4644;48.858;9.184;2024-01-11T00:00:20;6.70;;;3.20;;
9218;SDS011;4644;48.858;9.184;2024-01-11T00:02:46;6.23;;;2.30;;
9218;SDS011;4644;48.858;9.184;2024-01-11T00:05:15;4.77;;;3.53;;
9218;SDS011;4644;48.858;9.184;2024-01-11T00:07:42;11.50;;;3.27;;
9218;SDS011;4644;48.858;9.184;2024-01-11T00:10:09;4.30;;;2.80;;
9218;SDS011;4644;48.858;9.184;2024-01-11T00:12:36;4.97;;;3.27;;
9218;SDS011;4644;48.858;9.184;2024-01-11T00:15:03;7.27;;;3.90;;
9218;SDS011;4644;48.858;9.184;2024-01-11T00:17:30;3.50;;;3.17;;
9218;SDS011;4644;48.858;9.184;2024-01-11T00:19:57;4.13;;;2.83;;
9218;SDS011;4644;48.858;9.184;2024-01-11T00:22:25;5.33;;;3.63;;
9218;SDS011;4644;48.858;9.184;2024-01-11T00:24:52;4.87;;;3.30;;
9218;SDS011;4644;48.858;9.184;2024-01-11T00:27:19;6.20;;;3.37;;
9218;SDS011;4644;48.858;9.184;2024-01-11T00:29:46;4.07;;;2.93;;
9218;SDS011;4644;48.858;9.184;2024-01-11T00:32:13;7.43;;;3.93;;
9218;SDS011;4644;48.858;9.184;2024-01-11T00:34:40;7.57;;;2.97;;
9218;SDS011;4644;48.858;9.184;2024-01-11T00:37:06;3.13;;;2.83;;
9218;SDS011;4644;48.858;9.184;2024-01-11T00:39:35;4.63;;;3.00;;
9218;SDS011;4644;48.858;9.184;2024-01-11T00:42:02;3.03;;;2.73;;
9218;SDS011;4644;48.858;9.184;2024-01-11T00:44:29;2.90;;;2.70;;
9218;SDS011;4644;48.858;9.184;2024-01-11T00:46:56;3.40;;;3.07;;
9218;SDS011;4644;48.858;9.184;2024-01-11T00:49:23;9.20;;;3.83;;
9218;SDS011;4644;48.858;9.184;2024-01-11T00:51:50;5.40;;;3.40;;
9218;SDS011;4644;48.858;9.184;2024-01-11T00:54:16;3.57;;;2.60;;
9218;SDS011;4644;48.858;9.184;2024-01-11T00:56:45;10.40;;;3.10;;
9218;SDS011;4644;48.858;9.184;2024-01-11T00:59:12;4.80;;;2.93;;
9218;SDS011;4644;48.858;9.184;2024-01-11T01:01:38;5.97;;;4.10;;
9218;SDS011;4644;48.858;9.184;2024-01-11T01:04:05;2.90;;;2.70;;
9218;SDS011;4644;48.858;9.184;2024-01-11T01:06:32;3.77;;;3.40;;
9218;SDS011;4644;48.858;9.184;2024-01-11T01:08:59;5.50;;;3.00;;
9218;SDS011;4644;48.858;9.184;2024-01-11T01:11:26;4.87;;;2.77;;
9218;SDS011;4644;48.858;9.184;2024-01-11T01:13:54;5.17;;;2.17;;
9218;SDS011;4644;48.858;9.184;2024-01-11T01:16:21;3.30;;;1.90;;
9218;SDS011;4644;48.858;9.184;2024-01-11T01:18:48;5.93;;;4.20;;
9218;SDS011;4644;48.858;9.184;2024-01-11T01:21:14;3.87;;;2.97;;
9218;SDS011;4644;48.858;9.184;2024-01-11T01:23:41;4.60;;;2.63;;
9218;SDS011;4644;48.858;9.184;2024-01-11T01:26:08;5.63;;;2.67;;
9218;SDS011;4644;48.858;9.184;2024-01-11T01:28:35;9.07;;;4.27;;
9218;SDS011;4644;48.858;9.184;2024-01-11T01:31:03;3.17;;;2.53;;
9218;SDS011;4644;48.858;9.184;2024-01-11T01:33:30;6.03;;;2.93;;
9218;SDS011;4644;48.858;9.184;2024-01-11T01:35:57;5.47;;;3.20;;
9218;SDS011;4644;48.858;9.184;2024-01-11T01:38:24;3.27;;;2.70;;
9218;SDS011;4644;48.858;9.184;2024-01-11T01:40:51;3.57;;;3.27;;
9218;SDS011;4644;48.858;9.184;2024-01-11T01:43:18;6.67;;;2.80;;
9218;SDS011;4644;48.858;9.184;2024-01-11T01:45:44;5.30;;;3.73;;
9218;SDS011;4644;48.858;9.184;2024-01-11T01:48:14;6.73;;;3.60;;
9218;SDS011;4644;48.858;9.184;2024-01-11T01:50:41;12.80;;;3.60;;
9218;SDS011;4644;48.858;9.184;2024-01-11T01:53:10;3.70;;;2.80;;
9218;SDS011;4644;48.858;9.184;2024-01-11T01:55:37;10.97;;;3.47;;
9218;SDS011;4644;48.858;9.184;2024-01-11T01:58:04;5.90;;;2.83;;
9218;SDS011;4644;48.858;9.184;2024-01-11T02:00:31;4.17;;;2.23;;
9218;SDS011;4644;48.858;9.184;2024-01-11T02:02:58;3.33;;;2.50;;
9218;SDS011;4644;48.858;9.184;2024-01-11T02:05:26;4.50;;;3.67;;
9218;SDS011;4644;48.858;9.184;2024-01-11T02:07:53;6.73;;;3.10;;
9218;SDS011;4644;48.858;9.184;2024-01-11T02:10:21;5.33;;;2.80;;
9218;SDS011;4644;48.858;9.184;2024-01-11T02:12:49;5.90;;;3.97;;
9218;SDS011;4644;48.858;9.184;2024-01-11T02:15:16;3.10;;;2.80;;
9218;SDS011;4644;48.858;9.184;2024-01-11T02:17:44;6.40;;;2.47;;
9218;SDS011;4644;48.858;9.184;2024-01-11T02:20:11;3.20;;;2.47;;
9218;SDS011;4644;48.858;9.184;2024-01-11T02:22:40;3.33;;;3.00;;
9218;SDS011;4644;48.858;9.184;2024-01-11T02:25:10;13.33;;;2.97;;
9218;SDS011;4644;48.858;9.184;2024-01-11T02:27:46;2.40;;;2.00;;
9218;SDS011;4644;48.858;9.184;2024-01-11T02:30:14;4.77;;;3.57;;
9218;SDS011;4644;48.858;9.184;2024-01-11T02:32:42;5.23;;;3.77;;
9218;SDS011;4644;48.858;9.184;2024-01-11T02:35:11;5.10;;;3.40;;
9218;SDS011;4644;48.858;9.184;2024-01-11T02:37:38;2.17;;;1.97;;
9218;SDS011;4644;48.858;9.184;2024-01-11T02:40:06;6.67;;;3.33;;
9218;SDS011;4644;48.858;9.184;2024-01-11T02:42:36;7.63;;;2.13;;
9218;SDS011;4644;48.858;9.184;2024-01-11T02:45:03;3.60;;;3.20;;
9218;SDS011;4644;48.858;9.184;2024-01-11T02:47:31;3.60;;;2.23;;
9218;SDS011;4644;48.858;9.184;2024-01-11T02:49:57;13.67;;;3.17;;
9218;SDS011;4644;48.858;9.184;2024-01-11T02:52:25;3.17;;;2.87;;
9218;SDS011;4644;48.858;9.184;2024-01-11T02:54:51;3.53;;;2.77;;
9218;SDS011;4644;48.858;9.184;2024-01-11T02:57:18;3.87;;;3.23;;
9218;SDS011;4644;48.858;9.184;2024-01-11T02:59:46;3.97;;;2.90;;
9218;SDS011;4644;48.858;9.184;2024-01-11T03:02:13;5.33;;;3.33;;
9218;SDS011;4644;48.858;9.184;2024-01-11T03:04:40;3.17;;;2.47;;
9218;SDS011;4644;48.858;9.184;2024-01-11T03:07:07;3.27;;;3.07;;
9218;SDS011;4644;48.858;9.184;2024-01-11T03:09:34;6.03;;;2.40;;
9218;SDS011;4644;48.858;9.184;2024-01-11T03:12:02;4.20;;;2.43;;
9218;SDS011;4644;48.858;9.184;2024-01-11T03:14:31;3.07;;;2.70;;
9218;SDS011;4644;48.858;9.184;2024-01-11T03:16:59;6.80;;;2.60;;
9218;SDS011;4644;48.858;9.184;2024-01-11T03:19:26;4.83;;;3.60;;
9218;SDS011;4644;48.858;9.184;2024-01-11T03:21:53;2.67;;;2.33;;
9218;SDS011;4644;48.858;9.184;2024-01-11T03:24:20;3.63;;;2.77;;
9218;SDS011;4644;48.858;9.184;2024-01-11T03:26:47;6.90;;;3.23;;
9218;SDS011;4644;48.858;9.184;2024-01-11T03:29:14;4.67;;;3.20;;
9218;SDS011;4644;48.858;9.184;2024-01-11T03:31:41;3.10;;;2.03;;
9218;SDS011;4644;48.858;9.184;2024-01-11T03:34:11;2.77;;;2.57;;
9218;SDS011;4644;48.858;9.184;2024-01-11T03:36:38;6.03;;;2.20;;
9218;SDS011;4644;48.858;9.184;2024-01-11T03:39:05;5.10;;;2.70;;
9218;SDS011;4644;48.858;9.184;2024-01-11T03:41:32;4.93;;;2.23;;
9218;SDS011;4644;48.858;9.184;2024-01-11T03:43:59;2.60;;;2.17;;
9218;SDS011;4644;48.858;9.184;2024-01-11T03:46:26;6.97;;;2.73;;
9218;SDS011;4644;48.858;9.184;2024-01-11T03:48:52;3.63;;;2.77;;
9218;SDS011;4644;48.858;9.184;2024-01-11T03:51:22;6.83;;;2.83;;
9218;SDS011;4644;48.858;9.184;2024-01-11T03:53:49;4.30;;;2.93;;
9218;SDS011;4644;48.858;9.184;2024-01-11T03:56:15;6.97;;;3.33;;
9218;SDS011;4644;48.858;9.184;2024-01-11T03:58:42;4.47;;;3.10;;
9218;SDS011;4644;48.858;9.184;2024-01-11T04:01:10;3.70;;;2.23;;
9218;SDS011;4644;48.858;9.184;2024-01-11T04:03:37;10.60;;;2.80;;
9218;SDS011;4644;48.858;9.184;2024-01-11T04:06:04;3.73;;;2.43;;
9218;SDS011;4644;48.858;9.184;2024-01-11T04:08:32;6.57;;;2.90;;
9218;SDS011;4644;48.858;9.184;2024-01-11T04:11:01;2.87;;;2.37;;
9218;SDS011;4644;48.858;9.184;2024-01-11T04:13:29;4.33;;;3.57;;
9218;SDS011;4644;48.858;9.184;2024-01-11T04:15:56;4.03;;;2.33;;
9218;SDS011;4644;48.858;9.184;2024-01-11T04:18:22;5.40;;;2.90;;
9218;SDS011;4644;48.858;9.184;2024-01-11T04:20:49;7.10;;;3.50;;
9218;SDS011;4644;48.858;9.184;2024-01-11T04:23:16;3.43;;;3.13;;
9218;SDS011;4644;48.858;9.184;2024-01-11T04:25:44;2.50;;;2.07;;
9218;SDS011;4644;48.858;9.184;2024-01-11T04:28:11;2.77;;;1.97;;
9218;SDS011;4644;48.858;9.184;2024-01-11T04:30:38;3.60;;;2.90;;
9218;SDS011;4644;48.858;9.184;2024-01-11T04:33:05;3.10;;;2.80;;
9218;SDS011;4644;48.858;9.184;2024-01-11T04:35:32;3.63;;;2.63;;
9218;SDS011;4644;48.858;9.184;2024-01-11T04:37:59;3.83;;;2.97;;
9218;SDS011;4644;48.858;9.184;2024-01-11T04:40:26;3.57;;;2.37;;
9218;SDS011;4644;48.858;9.184;2024-01-11T04:42:54;3.03;;;2.37;;
9218;SDS011;4644;48.858;9.184;2024-01-11T04:45:21;3.47;;;2.37;;
9218;SDS011;4644;48.858;9.184;2024-01-11T04:47:49;3.10;;;2.27;;
9218;SDS011;4644;48.858;9.184;2024-01-11T04:50:16;4.30;;;2.57;;
9218;SDS011;4644;48.858;9.184;2024-01-11T04:52:43;3.67;;;2.87;;
9218;SDS011;4644;48.858;9.184;2024-01-11T04:55:10;3.03;;;2.40;;
9218;SDS011;4644;48.858;9.184;2024-01-11T04:57:37;2.80;;;2.60;;
9218;SDS011;4644;48.858;9.184;2024-01-11T05:00:06;3.40;;;2.70;;
9218;SDS011;4644;48.858;9.184;2024-01-11T05:02:33;6.50;;;2.40;;
9218;SDS011;4644;48.858;9.184;2024-01-11T05:05:00;5.63;;;3.67;;
9218;SDS011;4644;48.858;9.184;2024-01-11T05:07:27;5.30;;;2.30;;
9218;SDS011;4644;48.858;9.184;2024-01-11T05:09:54;3.97;;;3.13;;
9218;SDS011;4644;48.858;9.184;2024-01-11T05:12:21;2.67;;;2.47;;
9218;SDS011;4644;48.858;9.184;2024-01-11T05:14:48;1.53;;;1.47;;
9218;SDS011;4644;48.858;9.184;2024-01-11T05:17:16;5.17;;;2.80;;
9218;SDS011;4644;48.858;9.184;2024-01-11T05:19:43;2.80;;;2.53;;
9218;SDS011;4644;48.858;9.184;2024-01-11T05:22:10;3.30;;;2.40;;
9218;SDS011;4644;48.858;9.184;2024-01-11T05:24:37;3.83;;;2.37;;
9218;SDS011;4644;48.858;9.184;2024-01-11T05:27:04;6.10;;;2.70;;
9218;SDS011;4644;48.858;9.184;2024-01-11T05:29:31;4.33;;;3.00;;
9218;SDS011;4644;48.858;9.184;2024-01-11T05:31:58;4.37;;;3.10;;
9218;SDS011;4644;48.858;9.184;2024-01-11T05:34:26;4.37;;;2.83;;
9218;SDS011;4644;48.858;9.184;2024-01-11T05:36:53;4.50;;;3.03;;
9218;SDS011;4644;48.858;9.184;2024-01-11T05:39:20;3.03;;;2.20;;
9218;SDS011;4644;48.858;9.184;2024-01-11T05:41:47;3.13;;;2.30;;
9218;SDS011;4644;48.858;9.184;2024-01-11T05:44:14;6.90;;;2.97;;
9218;SDS011;4644;48.858;9.184;2024-01-11T05:46:41;3.70;;;2.60;;
9218;SDS011;4644;48.858;9.184;2024-01-11T05:49:07;2.47;;;2.00;;
9218;SDS011;4644;48.858;9.184;2024-01-11T05:51:36;5.60;;;3.03;;
9218;SDS011;4644;48.858;9.184;2024-01-11T05:54:02;2.70;;;2.50;;
9218;SDS011;4644;48.858;9.184;2024-01-11T05:56:29;3.97;;;2.70;;
9218;SDS011;4644;48.858;9.184;2024-01-11T05:58:56;5.67;;;2.77;;
9218;SDS011;4644;48.858;9.184;2024-01-11T06:01:24;3.13;;;2.83;;
9218;SDS011;4644;48.858;9.184;2024-01-11T06:03:50;3.70;;;2.17;;
9218;SDS011;4644;48.858;9.184;2024-01-11T06:06:17;2.10;;;1.83;;
9218;SDS011;4644;48.858;9.184;2024-01-11T06:08:46;4.00;;;1.97;;
9218;SDS011;4644;48.858;9.184;2024-01-11T06:11:13;3.20;;;2.60;;
9218;SDS011;4644;48.858;9.184;2024-01-11T06:13:43;4.67;;;2.20;;
9218;SDS011;4644;48.858;9.184;2024-01-11T06:16:10;4.50;;;3.13;;
9218;SDS011;4644;48.858;9.184;2024-01-11T06:18:37;4.13;;;2.47;;
9218;SDS011;4644;48.858;9.184;2024-01-11T06:21:04;4.90;;;3.47;;
9218;SDS011;4644;48.858;9.184;2024-01-11T06:23:31;1.40;;;1.30;;
9218;SDS011;4644;48.858;9.184;2024-01-11T06:25:59;4.13;;;2.23;;
9218;SDS011;4644;48.858;9.184;2024-01-11T06:28:26;5.03;;;3.07;;
9218;SDS011;4644;48.858;9.184;2024-01-11T06:30:53;10.47;;;2.67;;
9218;SDS011;4644;48.858;9.184;2024-01-11T06:33:20;4.97;;;2.47;;
9218;SDS011;4644;48.858;9.184;2024-01-11T06:35:47;5.47;;;2.70;;
9218;SDS011;4644;48.858;9.184;2024-01-11T06:38:15;2.50;;;1.57;;
9218;SDS011;4644;48.858;9.184;2024-01-11T06:40:42;2.00;;;1.90;;
9218;SDS011;4644;48.858;9.184;2024-01-11T06:43:10;12.33;;;2.97;;
9218;SDS011;4644;48.858;9.184;2024-01-11T06:45:37;2.50;;;1.70;;
9218;SDS011;4644;48.858;9.184;2024-01-11T06:48:05;4.43;;;3.47;;
9218;SDS011;4644;48.858;9.184;2024-01-11T06:50:32;5.77;;;2.43;;
9218;SDS011;4644;48.858;9.184;2024-01-11T06:52:59;4.33;;;2.57;;
9218;SDS011;4644;48.858;9.184;2024-01-11T06:55:26;2.53;;;2.27;;
9218;SDS011;4644;48.858;9.184;2024-01-11T06:57:53;4.97;;;2.57;;
9218;SDS011;4644;48.858;9.184;2024-01-11T07:00:21;3.73;;;2.43;;
9218;SDS011;4644;48.858;9.184;2024-01-11T07:02:48;4.23;;;2.53;;
9218;SDS011;4644;48.858;9.184;2024-01-11T07:05:15;4.93;;;2.77;;
9218;SDS011;4644;48.858;9.184;2024-01-11T07:07:42;2.30;;;2.20;;
9218;SDS011;4644;48.858;9.184;2024-01-11T07:10:09;4.33;;;2.73;;
9218;SDS011;4644;48.858;9.184;2024-01-11T07:12:37;2.03;;;1.87;;
9218;SDS011;4644;48.858;9.184;2024-01-11T07:15:06;2.57;;;2.37;;
9218;SDS011;4644;48.858;9.184;2024-01-11T07:17:36;2.87;;;1.73;;
9218;SDS011;4644;48.858;9.184;2024-01-11T07:20:03;3.30;;;3.10;;
9218;SDS011;4644;48.858;9.184;2024-01-11T07:22:30;2.30;;;2.10;;
9218;SDS011;4644;48.858;9.184;2024-01-11T07:24:57;3.50;;;2.97;;
9218;SDS011;4644;48.858;9.184;2024-01-11T07:27:24;4.07;;;2.57;;
9218;SDS011;4644;48.858;9.184;2024-01-11T07:29:51;3.73;;;2.40;;
9218;SDS011;4644;48.858;9.184;2024-01-11T07:32:18;5.10;;;2.67;;
9218;SDS011;4644;48.858;9.184;2024-01-11T07:34:46;3.77;;;2.30;;
9218;SDS011;4644;48.858;9.184;2024-01-11T07:37:14;4.00;;;2.97;;
9218;SDS011;4644;48.858;9.184;2024-01-11T07:39:40;4.13;;;2.23;;
9218;SDS011;4644;48.858;9.184;2024-01-11T07:42:07;3.17;;;2.43;;
9218;SDS011;4644;48.858;9.184;2024-01-11T07:44:34;4.57;;;2.77;;
9218;SDS011;4644;48.858;9.184;2024-01-11T07:47:01;2.60;;;2.40;;
9218;SDS011;4644;48.858;9.184;2024-01-11T07:49:28;3.27;;;3.03;;
9218;SDS011;4644;48.858;9.184;2024-01-11T07:51:57;2.80;;;2.37;;
9218;SDS011;4644;48.858;9.184;2024-01-11T07:54:24;11.00;;;2.70;;
9218;SDS011;4644;48.858;9.184;2024-01-11T07:56:51;2.27;;;2.17;;
9218;SDS011;4644;48.858;9.184;2024-01-11T07:59:17;3.33;;;3.03;;
9218;SDS011;4644;48.858;9.184;2024-01-11T08:01:44;3.37;;;2.37;;
9218;SDS011;4644;48.858;9.184;2024-01-11T08:04:11;3.23;;;2.43;;
9218;SDS011;4644;48.858;9.184;2024-01-11T08:06:38;3.97;;;3.57;;
9218;SDS011;4644;48.858;9.184;2024-01-11T08:09:06;8.83;;;3.43;;
9218;SDS011;4644;48.858;9.184;2024-01-11T08:11:35;2.17;;;2.03;;
9218;SDS011;4644;48.858;9.184;2024-01-11T08:14:02;4.80;;;2.90;;
9218;SDS011;4644;48.858;9.184;2024-01-11T08:16:30;3.30;;;2.33;;
9218;SDS011;4644;48.858;9.184;2024-01-11T08:18:57;3.27;;;2.63;;
9218;SDS011;4644;48.858;9.184;2024-01-11T08:21:25;16.23;;;3.47;;
9218;SDS011;4644;48.858;9.184;2024-01-11T08:23:53;2.63;;;2.47;;
9218;SDS011;4644;48.858;9.184;2024-01-11T08:26:21;3.97;;;2.63;;
9218;SDS011;4644;48.858;9.184;2024-01-11T08:28:48;6.03;;;4.10;;
9218;SDS011;4644;48.858;9.184;2024-01-11T08:31:15;13.87;;;3.87;;
9218;SDS011;4644;48.858;9.184;2024-01-11T08:33:42;3.13;;;2.30;;
9218;SDS011;4644;48.858;9.184;2024-01-11T08:36:09;3.27;;;2.87;;
9218;SDS011;4644;48.858;9.184;2024-01-11T08:38:36;5.00;;;3.27;;
9218;SDS011;4644;48.858;9.184;2024-01-11T08:41:03;6.53;;;3.63;;
9218;SDS011;4644;48.858;9.184;2024-01-11T08:43:32;8.00;;;3.80;;
9218;SDS011;4644;48.858;9.184;2024-01-11T08:45:59;7.90;;;3.13;;
9218;SDS011;4644;48.858;9.184;2024-01-11T08:48:27;3.33;;;3.03;;
9218;SDS011;4644;48.858;9.184;2024-01-11T08:50:54;6.37;;;3.37;;
9218;SDS011;4644;48.858;9.184;2024-01-11T08:53:21;4.70;;;2.90;;
9218;SDS011;4644;48.858;9.184;2024-01-11T08:55:48;9.87;;;4.37;;
9218;SDS011;4644;48.858;9.184;2024-01-11T08:58:14;3.73;;;3.43;;
9218;SDS011;4644;48.858;9.184;2024-01-11T09:00:43;7.37;;;4.30;;
9218;SDS011;4644;48.858;9.184;2024-01-11T09:03:10;7.20;;;3.70;;
9218;SDS011;4644;48.858;9.184;2024-01-11T09:05:38;4.00;;;2.73;;
9218;SDS011;4644;48.858;9.184;2024-01-11T09:08:05;6.57;;;3.97;;
9218;SDS011;4644;48.858;9.184;2024-01-11T09:10:33;4.33;;;3.63;;
9218;SDS011;4644;48.858;9.184;2024-01-11T09:13:00;5.47;;;3.87;;
9218;SDS011;4644;48.858;9.184;2024-01-11T09:15:27;4.20;;;3.13;;
9218;SDS011;4644;48.858;9.184;2024-01-11T09:17:55;8.80;;;4.70;;
9218;SDS011;4644;48.858;9.184;2024-01-11T09:20:22;6.63;;;3.73;;
9218;SDS011;4644;48.858;9.184;2024-01-11T09:22:49;5.80;;;3.20;;
9218;SDS011;4644;48.858;9.184;2024-01-11T09:25:16;2.07;;;1.93;;
9218;SDS011;4644;48.858;9.184;2024-01-11T09:27:43;12.13;;;4.47;;
9218;SDS011;4644;48.858;9.184;2024-01-11T09:30:10;7.70;;;4.77;;
9218;SDS011;4644;48.858;9.184;2024-01-11T09:32:37;7.73;;;4.57;;
9218;SDS011;4644;48.858;9.184;2024-01-11T09:35:06;4.33;;;3.80;;
9218;SDS011;4644;48.858;9.184;2024-01-11T09:37:33;5.13;;;3.37;;
9218;SDS011;4644;48.858;9.184;2024-01-11T09:40:00;6.27;;;3.93;;
9218;SDS011;4644;48.858;9.184;2024-01-11T09:42:29;8.23;;;3.77;;
9218;SDS011;4644;48.858;9.184;2024-01-11T09:44:56;3.80;;;3.50;;
9218;SDS011;4644;48.858;9.184;2024-01-11T09:47:23;8.03;;;4.47;;
9218;SDS011;4644;48.858;9.184;2024-01-11T09:49:53;8.47;;;4.30;;
9218;SDS011;4644;48.858;9.184;2024-01-11T09:52:24;7.00;;;4.13;;
9218;SDS011;4644;48.858;9.184;2024-01-11T09:54:53;4.17;;;3.83;;
9218;SDS011;4644;48.858;9.184;2024-01-11T09:57:21;8.07;;;3.77;;
9218;SDS011;4644;48.858;9.184;2024-01-11T09:59:54;8.10;;;5.47;;
9218;SDS011;4644;48.858;9.184;2024-01-11T10:02:23;8.53;;;3.80;;
9218;SDS011;4644;48.858;9.184;2024-01-11T10:04:51;8.27;;;4.53;;
9218;SDS011;4644;48.858;9.184;2024-01-11T10:07:18;6.87;;;3.97;;
9218;SDS011;4644;48.858;9.184;2024-01-11T10:09:49;6.67;;;3.37;;
9218;SDS011;4644;48.858;9.184;2024-01-11T10:12:17;3.87;;;3.50;;
9218;SDS011;4644;48.858;9.184;2024-01-11T10:14:45;5.10;;;3.97;;
9218;SDS011;4644;48.858;9.184;2024-01-11T10:17:12;7.43;;;4.07;;
9218;SDS011;4644;48.858;9.184;2024-01-11T10:19:39;5.43;;;4.50;;
9218;SDS011;4644;48.858;9.184;2024-01-11T10:22:06;8.03;;;4.07;;
9218;SDS011;4644;48.858;9.184;2024-01-11T10:24:37;7.97;;;4.00;;
9218;SDS011;4644;48.858;9.184;2024-01-11T10:27:07;5.47;;;3.33;;
9218;SDS011;4644;48.858;9.184;2024-01-11T10:29:35;10.10;;;4.67;;
9218;SDS011;4644;48.858;9.184;2024-01-11T10:32:03;7.57;;;3.97;;
9218;SDS011;4644;48.858;9.184;2024-01-11T10:34:30;3.70;;;2.93;;
9218;SDS011;4644;48.858;9.184;2024-01-11T10:36:57;5.97;;;3.67;;
9218;SDS011;4644;48.858;9.184;2024-01-11T10:39:24;5.20;;;4.00;;
9218;SDS011;4644;48.858;9.184;2024-01-11T10:42:01;6.13;;;2.73;;
9218;SDS011;4644;48.858;9.184;2024-01-11T10:44:34;10.23;;;5.23;;
9218;SDS011;4644;48.858;9.184;2024-01-11T10:47:02;7.27;;;4.87;;
9218;SDS011;4644;48.858;9.184;2024-01-11T10:49:30;6.70;;;4.63;;
9218;SDS011;4644;48.858;9.184;2024-01-11T10:52:00;8.00;;;4.97;;
9218;SDS011;4644;48.858;9.184;2024-01-11T10:54:28;9.33;;;5.10;;
9218;SDS011;4644;48.858;9.184;2024-01-11T10:56:56;9.23;;;4.83;;
9218;SDS011;4644;48.858;9.184;2024-01-11T10:59:27;13.57;;;5.97;;
9218;SDS011;4644;48.858;9.184;2024-01-11T11:01:55;11.33;;;5.70;;
9218;SDS011;4644;48.858;9.184;2024-01-11T11:04:24;9.10;;;5.13;;
9218;SDS011;4644;48.858;9.184;2024-01-11T11:06:54;12.60;;;4.93;;
9218;SDS011;4644;48.858;9.184;2024-01-11T11:09:22;6.67;;;4.77;;
9218;SDS011;4644;48.858;9.184;2024-01-11T11:11:49;7.27;;;4.47;;
9218;SDS011;4644;48.858;9.184;2024-01-11T11:14:16;11.07;;;5.03;;
9218;SDS011;4644;48.858;9.184;2024-01-11T11:16:45;9.83;;;6.20;;
9218;SDS011;4644;48.858;9.184;2024-01-11T11:19:13;9.17;;;5.90;;
9218;SDS011;4644;48.858;9.184;2024-01-11T11:21:43;8.10;;;4.70;;
9218;SDS011;4644;48.858;9.184;2024-01-11T11:24:12;8.37;;;4.57;;
9218;SDS011;4644;48.858;9.184;2024-01-11T11:26:39;12.07;;;5.40;;
9218;SDS011;4644;48.858;9.184;2024-01-11T11:29:06;8.53;;;4.90;;
9218;SDS011;4644;48.858;9.184;2024-01-11T11:31:34;9.07;;;4.60;;
9218;SDS011;4644;48.858;9.184;2024-01-11T11:34:04;6.73;;;5.40;;
9218;SDS011;4644;48.858;9.184;2024-01-11T11:36:32;8.07;;;3.50;;
9218;SDS011;4644;48.858;9.184;2024-01-11T11:39:00;8.40;;;4.80;;
9218;SDS011;4644;48.858;9.184;2024-01-11T11:41:29;6.03;;;4.50;;
9218;SDS011;4644;48.858;9.184;2024-01-11T11:44:00;10.10;;;6.10;;
9218;SDS011;4644;48.858;9.184;2024-01-11T11:46:27;9.57;;;5.20;;
9218;SDS011;4644;48.858;9.184;2024-01-11T11:48:54;4.63;;;4.20;;
9218;SDS011;4644;48.858;9.184;2024-01-11T11:51:24;6.03;;;4.00;;
9218;SDS011;4644;48.858;9.184;2024-01-11T11:53:51;6.83;;;4.13;;
9218;SDS011;4644;48.858;9.184;2024-01-11T11:56:19;9.53;;;4.87;;
9218;SDS011;4644;48.858;9.184;2024-01-11T11:58:47;9.37;;;5.20;;
9218;SDS011;4644;48.858;9.184;2024-01-11T12:01:14;8.93;;;5.77;;
9218;SDS011;4644;48.858;9.184;2024-01-11T12:03:43;9.87;;;5.73;;
9218;SDS011;4644;48.858;9.184;2024-01-11T12:06:14;8.77;;;4.90;;
9218;SDS011;4644;48.858;9.184;2024-01-11T12:08:43;9.90;;;5.60;;
9218;SDS011;4644;48.858;9.184;2024-01-11T12:11:12;9.07;;;5.63;;
9218;SDS011;4644;48.858;9.184;2024-01-11T12:13:40;9.10;;;5.30;;
9218;SDS011;4644;48.858;9.184;2024-01-11T12:16:08;7.57;;;5.10;;
9218;SDS011;4644;48.858;9.184;2024-01-11T12:18:35;10.97;;;4.97;;
9218;SDS011;4644;48.858;9.184;2024-01-11T12:21:02;12.47;;;4.87;;
9218;SDS011;4644;48.858;9.184;2024-01-11T12:23:29;8.00;;;4.20;;
9218;SDS011;4644;48.858;9.184;2024-01-11T12:25:59;7.90;;;5.23;;
9218;SDS011;4644;48.858;9.184;2024-01-11T12:28:28;8.63;;;5.83;;
9218;SDS011;4644;48.858;9.184;2024-01-11T12:30:55;11.57;;;5.23;;
9218;SDS011;4644;48.858;9.184;2024-01-11T12:33:22;8.93;;;5.30;;
9218;SDS011;4644;48.858;9.184;2024-01-11T12:35:49;12.53;;;6.03;;
9218;SDS011;4644;48.858;9.184;2024-01-11T12:38:16;9.77;;;5.10;;
9218;SDS011;4644;48.858;9.184;2024-01-11T12:40:44;7.80;;;5.43;;
9218;SDS011;4644;48.858;9.184;2024-01-11T12:43:14;10.97;;;5.40;;
9218;SDS011;4644;48.858;9.184;2024-01-11T12:45:42;9.10;;;5.67;;
9218;SDS011;4644;48.858;9.184;2024-01-11T12:48:09;7.93;;;4.53;;
9218;SDS011;4644;48.858;9.184;2024-01-11T12:50:39;8.90;;;5.27;;
9218;SDS011;4644;48.858;9.184;2024-01-11T12:53:07;10.77;;;5.60;;
9218;SDS011;4644;48.858;9.184;2024-01-11T12:55:34;7.60;;;5.00;;
9218;SDS011;4644;48.858;9.184;2024-01-11T12:58:05;6.50;;;4.40;;
9218;SDS011;4644;48.858;9.184;2024-01-11T13:00:35;7.40;;;5.00;;
9218;SDS011;4644;48.858;9.184;2024-01-11T13:03:03;8.43;;;4.73;;
9218;SDS011;4644;48.858;9.184;2024-01-11T13:05:31;9.60;;;5.47;;
9218;SDS011;4644;48.858;9.184;2024-01-11T13:08:00;8.20;;;4.80;;
9218;SDS011;4644;48.858;9.184;2024-01-11T13:10:28;8.97;;;5.77;;
9218;SDS011;4644;48.858;9.184;2024-01-11T13:12:55;9.80;;;5.90;;
9218;SDS011;4644;48.858;9.184;2024-01-11T13:15:24;7.70;;;6.00;;
9218;SDS011;4644;48.858;9.184;2024-01-11T13:17:53;11.47;;;6.13;;
9218;SDS011;4644;48.858;9.184;2024-01-11T13:20:19;9.93;;;6.27;;
9218;SDS011;4644;48.858;9.184;2024-01-11T13:22:46;10.70;;;5.07;;
9218;SDS011;4644;48.858;9.184;2024-01-11T13:25:13;12.70;;;5.63;;
9218;SDS011;4644;48.858;9.184;2024-01-11T13:27:40;7.57;;;5.20;;
9218;SDS011;4644;48.858;9.184;2024-01-11T13:30:07;6.90;;;4.53;;
9218;SDS011;4644;48.858;9.184;2024-01-11T13:32:34;9.37;;;5.67;;
9218;SDS011;4644;48.858;9.184;2024-01-11T13:35:02;8.77;;;4.80;;
9218;SDS011;4644;48.858;9.184;2024-01-11T13:37:30;9.30;;;5.23;;
9218;SDS011;4644;48.858;9.184;2024-01-11T13:39:57;8.03;;;5.37;;
9218;SDS011;4644;48.858;9.184;2024-01-11T13:42:24;7.10;;;5.07;;
9218;SDS011;4644;48.858;9.184;2024-01-11T13:44:51;8.40;;;5.03;;
9218;SDS011;4644;48.858;9.184;2024-01-11T13:47:17;9.77;;;5.47;;
9218;SDS011;4644;48.858;9.184;2024-01-11T13:49:45;9.00;;;5.20;;
9218;SDS011;4644;48.858;9.184;2024-01-11T13:52:13;10.13;;;5.57;;
9218;SDS011;4644;48.858;9.184;2024-01-11T13:54:40;8.50;;;5.27;;
9218;SDS011;4644;48.858;9.184;2024-01-11T13:57:07;6.77;;;5.00;;
9218;SDS011;4644;48.858;9.184;2024-01-11T13:59:34;7.07;;;4.97;;
9218;SDS011;4644;48.858;9.184;2024-01-11T14:02:00;10.57;;;5.57;;
9218;SDS011;4644;48.858;9.184;2024-01-11T14:04:28;8.80;;;5.00;;
9218;SDS011;4644;48.858;9.184;2024-01-11T14:06:55;9.80;;;6.13;;
9218;SDS011;4644;48.858;9.184;2024-01-11T14:09:23;7.37;;;3.97;;
9218;SDS011;4644;48.858;9.184;2024-01-11T14:11:51;15.37;;;6.80;;
9218;SDS011;4644;48.858;9.184;2024-01-11T14:14:17;21.70;;;6.57;;
9218;SDS011;4644;48.858;9.184;2024-01-11T14:16:46;9.67;;;5.47;;
9218;SDS011;4644;48.858;9.184;2024-01-11T14:19:14;10.37;;;5.93;;
9218;SDS011;4644;48.858;9.184;2024-01-11T14:21:40;10.17;;;5.33;;
9218;SDS011;4644;48.858;9.184;2024-01-11T14:24:07;13.33;;;4.67;;
9218;SDS011;4644;48.858;9.184;2024-01-11T14:26:38;8.67;;;5.07;;
9218;SDS011;4644;48.858;9.184;2024-01-11T14:29:05;13.20;;;4.90;;
9218;SDS011;4644;48.858;9.184;2024-01-11T14:31:32;9.43;;;5.07;;
9218;SDS011;4644;48.858;9.184;2024-01-11T14:33:59;9.00;;;5.20;;
9218;SDS011;4644;48.858;9.184;2024-01-11T14:36:26;10.33;;;4.80;;
9218;SDS011;4644;48.858;9.184;2024-01-11T14:38:53;6.27;;;5.37;;
9218;SDS011;4644;48.858;9.184;2024-01-11T14:41:19;11.90;;;5.57;;
9218;SDS011;4644;48.858;9.184;2024-01-11T14:43:48;8.33;;;4.53;;
9218;SDS011;4644;48.858;9.184;2024-01-11T14:46:14;13.47;;;4.93;;
9218;SDS011;4644;48.858;9.184;2024-01-11T14:48:42;7.57;;;5.03;;
9218;SDS011;4644;48.858;9.184;2024-01-11T14:51:09;13.40;;;5.70;;
9218;SDS011;4644;48.858;9.184;2024-01-11T14:53:36;7.20;;;4.97;;
9218;SDS011;4644;48.858;9.184;2024-01-11T14:56:03;10.37;;;4.73;;
9218;SDS011;4644;48.858;9.184;2024-01-11T14:58:30;6.00;;;4.20;;
9218;SDS011;4644;48.858;9.184;2024-01-11T15:00:59;7.67;;;5.63;;
9218;SDS011;4644;48.858;9.184;2024-01-11T15:03:25;8.67;;;5.07;;
9218;SDS011;4644;48.858;9.184;2024-01-11T15:05:52;8.63;;;5.00;;
9218;SDS011;4644;48.858;9.184;2024-01-11T15:08:19;5.90;;;4.43;;
9218;SDS011;4644;48.858;9.184;2024-01-11T15:10:46;10.53;;;5.47;;
9218;SDS011;4644;48.858;9.184;2024-01-11T15:13:14;10.47;;;4.43;;
9218;SDS011;4644;48.858;9.184;2024-01-11T15:15:41;9.80;;;4.53;;